Weather observations for the past three days for
St. Louis Regional Airport
Imperial (Metric)
Date Time (cdt) Wind (mph) Vis. (mi.) Weather Sky Cond. Temperature (ºF) Relative Humidity Wind Chill (°F) Heat Index (°F) Pressure Precipitation (in)
Air Dwpt 6 hour altimeter (in) sea level (mb) 1 hr 3 hr 6 hr
Max. Min.
08 06:45 S 8 10.00 Fair CLR 51.8 44.6 77% 29.91 0.0
08 06:35 S 6 10.00 Fair CLR 50.5 43.7 78% 29.91 0.0
08 05:55 S 7 10.00 Fair CLR 50 42.4 75% 48 29.91 0.0
08 05:35 S 8 10.00 Fair CLR 50 42.1 74% 47 29.91 0.0
08 05:15 S 10 10.00 Fair CLR 50.4 41.9 73% 29.91 0.0
08 04:55 S 9 10.00 Fair CLR 50.5 41.7 72% 29.91 0.0
08 04:35 S 9 10.00 Fair CLR 50.9 41.5 70% 29.91 0.0
08 04:15 S 10 10.00 Fair CLR 50.9 41.2 70% 29.91 0.0
08 03:55 S 10 10.00 Fair CLR 51.1 41.2 69% 29.91 0.0
08 03:35 S 9 10.00 Fair CLR 50.9 41.4 70% 29.91 0.0
08 03:15 S 8 10.00 Fair CLR 50.9 41.4 70% 29.91 0.0
08 02:55 S 7 10.00 Fair CLR 50.9 41.4 70% 29.92 0.0
08 02:35 S 8 10.00 Fair CLR 51.1 41.5 70% 29.92 0.0
08 02:15 S 8 10.00 Fair CLR 51.1 41.5 70% 29.92 0.0
08 01:55 S 9 10.00 Partly Cloudy SCT100 51.8 41.4 68% 29.93 0.0
08 01:35 S 8 10.00 Partly Cloudy SCT100 52 41.4 67% 29.94 0.0
08 01:15 S 7 10.00 Fair CLR 51.4 41.2 68% 29.94 0.0
08 00:55 S 6 10.00 Fair CLR 51.8 41 65.3 51.8 67% 29.95 0.0
08 00:35 S 7 10.00 Fair CLR 52.9 41 64% 29.95 0.0
08 00:15 S 8 10.00 Fair CLR 53.2 40.5 62% 29.95 0.0
07 23:55 S 8 10.00 Fair CLR 54 40.5 60% 29.95 0.0
07 23:35 S 7 10.00 Fair CLR 53.4 41.2 63% 29.94 0.0
07 23:15 S 7 10.00 Fair CLR 52.9 42.1 67% 29.94 0.0
07 22:55 S 7 10.00 Fair CLR 53.1 41.9 66% 29.94 0.0
07 22:35 S 7 10.00 Fair CLR 53.6 41.9 65% 29.94 0.0
07 22:15 S 7 10.00 Fair CLR 54.9 41 60% 29.94 0.0
07 21:50 Vrbl 5 10.00 Fair CLR 57.2 39.2 51% 29.94 0.0
07 20:50 Vrbl 5 10.00 Fair CLR 59 39.2 48% 29.93 0.0
07 19:50 SW 9 10.00 Fair CLR 60.8 39.2 45% 29.91 0.0
07 18:50 W 8 10.00 Fair CLR 64.4 37.4 37% 29.91 0.0
07 17:50 W 12 10.00 Fair CLR 66.2 37.4 35% 29.92 0.0
07 16:50 SW 15 G 21 10.00 Partly Cloudy SCT075 66.2 37.4 35% 29.93 0.0
07 15:50 SW 9 G 21 10.00 Partly Cloudy SCT075 SCT090 66.2 35.6 32% 29.95 0.0
07 14:50 W 12 G 20 10.00 Partly Cloudy SCT070 SCT090 66.2 37.4 35% 29.97 0.0
07 13:45 W 9 G 18 10.00 Partly Cloudy SCT050 64.4 39.2 40% 29.99 0.0
07 12:45 W 13 G 20 10.00 Fair CLR 62.6 35.6 37% 30.01 0.0
07 11:45 W 10 10.00 Fair CLR 62.6 33.8 34% 30.03 0.0
07 10:45 SW 8 10.00 Fair CLR 59 35.6 42% 30.05 0.0
07 09:45 SW 9 10.00 Fair CLR 57.2 37.4 48% 30.06 0.0
07 08:45 SW 10 10.00 Fair CLR 53.6 41 63% 30.06 0.0
07 07:45 SW 6 10.00 Fair CLR 48.2 42.8 82% 46 30.06 0.0
07 06:45 Calm 10.00 Fair CLR 41 37.4 87% 30.06 0.0
07 06:35 Calm 10.00 Fair CLR 39.6 37.6 93% 30.05 0.0
07 06:15 Calm 10.00 Fair CLR 39.9 37.8 92% 30.05 0.0
07 05:55 Calm 10.00 Fair CLR 40.5 38.3 92% 30.04 0.0
07 05:35 Calm 10.00 Fair CLR 40.6 38.3 91% 30.04 0.0
07 05:15 Calm 10.00 Fair CLR 41 38.3 90% 30.04 0.0
07 04:55 Calm 10.00 Fair CLR 41.2 38.3 90% 30.03 0.0
07 04:35 Calm 10.00 Fair CLR 40.1 38.1 93% 30.04 0.0
07 04:15 Calm 10.00 Fair CLR 38.8 37.2 94% 30.04 0.0
07 03:55 Calm 10.00 Fair CLR 38.3 36.5 93% 30.04 0.0
07 03:35 Calm 10.00 Fair CLR 40.3 37.4 90% 30.05 0.0
07 03:15 Calm 10.00 Fair CLR 40.3 37.9 91% 30.05 0.0
07 02:55 Calm 10.00 Fair CLR 41.5 38.3 88% 30.05 0.0
07 02:35 Calm 10.00 Fair CLR 41.2 38.3 90% 30.04 0.0
07 02:15 Calm 10.00 Fair CLR 42.4 38.3 85% 30.04 0.0
07 01:55 Calm 10.00 Fair CLR 42.6 38.7 86% 30.05 0.0
07 01:35 Calm 10.00 Fair CLR 43 38.8 85% 30.05 0.0
07 01:15 Calm 10.00 Fair CLR 44.1 38.1 80% 30.06 0.0
07 00:55 Calm 10.00 Fair CLR 44.1 38.3 58.5 44.1 80% 30.05 0.0
07 00:35 Calm 10.00 Fair CLR 46.4 37.4 71% 30.06 0.0
07 00:15 Calm 10.00 Fair CLR 45.7 38.8 77% 30.05 0.0
06 23:55 Calm 10.00 Fair CLR 45.7 38.7 77% 30.05 0.0
06 23:35 Calm 10.00 Fair CLR 47.5 38.3 71% 30.05 0.0
06 23:15 Calm 10.00 Fair CLR 47.7 38.5 71% 30.05 0.0
06 22:55 Calm 10.00 Fair CLR 48.2 38.7 70% 30.05 0.0
06 22:35 Calm 10.00 Fair CLR 49.1 37.8 65% 30.05 0.0
06 22:15 N 3 10.00 Fair CLR 48.7 39.4 70% 30.05 0.0
06 21:50 NW 3 10.00 Fair CLR 48.2 41 76% 30.05 0.0
06 20:50 NW 3 10.00 Fair CLR 53.6 37.4 54% 30.03 0.0
06 19:50 N 7 10.00 Fair CLR 55.4 33.8 44% 30.01 0.0
06 18:50 NW 9 10.00 A Few Clouds FEW070 59 33.8 39% 30 0.0
06 17:50 N 6 10.00 Partly Cloudy SCT070 59 35.6 42% 30 0.0
06 16:50 NW 8 10.00 Mostly Cloudy BKN070 59 35.6 42% 30 0.0
06 15:50 N 9 10.00 Partly Cloudy SCT060 60.8 37.4 42% 30.01 0.0
06 14:50 NW 15 10.00 Mostly Cloudy BKN060 59 37.4 45% 30.02 0.0
06 13:50 N 16 10.00 A Few Clouds FEW050 59 35.6 42% 30.02 0.0
06 12:50 N 12 10.00 A Few Clouds FEW050 59 39.2 48% 30.02 0.0
06 11:50 NW 8 10.00 Mostly Cloudy BKN090 55.4 46.4 72% 30.02 0.0
06 10:50 NW 7 10.00 Overcast FEW013 OVC080 51.8 46.4 82% 30.01 0.0
06 09:50 W 7 10.00 Overcast FEW010 OVC080 50 46.4 88% 48 29.99 0.0
06 08:50 W 8 10.00 Overcast FEW008 OVC075 50 46.4 88% 47 29.99 0.0
06 07:50 W 9 10.00 Overcast OVC075 48.2 46.4 94% 45 29.98 0.0
06 06:50 W 9 10.00 Mostly Cloudy BKN075 48.2 44.6 87% 45 29.97 0.0
06 06:35 W 10 10.00 Light Drizzle BKN075 OVC090 47.7 46 94% 44 29.96 0.0
06 06:15 W 8 10.00 Overcast SCT075 OVC090 47.5 45.9 94% 44 29.94 0.0
06 05:55 S 3 7.00 Light Rain OVC090 47.5 45.9 94% 29.91 0.0 0.03
06 05:35 SW 7 7.00 Light Drizzle OVC090 47.3 45.7 94% 44 29.92 0.0 0.02
06 05:15 W 3 7.00 Rain SCT050 OVC090 47.5 45.7 94% 29.91 0.0 0.02
06 04:55 W 8 10.00 Light Rain SCT045 BKN070 OVC090 47.5 45.7 94% 44 29.92 0.0
06 04:35 W 7 10.00 Light Drizzle SCT070 BKN080 OVC100 47.5 45.7 94% 45 29.93 0.0
06 04:15 SW 6 7.00 Overcast OVC110 47.5 45.9 94% 45 29.92 0.0
06 03:55 W 5 7.00 Overcast SCT003 OVC110 47.5 45.9 94% 46 29.92 0.0
06 03:35 W 5 7.00 Light Drizzle BKN110 47.3 45.7 94% 46 29.91 0.0
06 03:15 W 5 7.00 Rain BKN100 OVC120 47.3 45.7 94% 46 29.9 0.0
06 02:55 W 5 7.00 Drizzle SCT070 SCT085 OVC100 47.3 45.9 95% 46 29.9 0.0
06 02:35 NW 3 7.00 Overcast SCT070 BKN085 OVC120 47.3 45.5 94% 29.89 0.0
06 02:15 W 6 10.00 Drizzle SCT070 SCT085 BKN120 47.3 45.5 94% 45 29.93 0.0
06 01:55 NW 5 10.00 Mostly Cloudy SCT085 BKN120 47.3 45.5 94% 46 29.91 0.0
06 01:35 W 5 10.00 Light Drizzle SCT090 BKN120 46.9 45.1 94% 45 29.91 0.0
06 01:15 Calm 10.00 Light Drizzle SCT070 BKN100 OVC120 46.9 45.1 94% 29.9 0.0
06 00:55 Calm 10.00 Mostly Cloudy SCT004 SCT065 BKN100 46.9 45.5 46.9 45.9 95% 29.9 0.0 0.01 0.08
06 00:35 Calm 10.00 Light Drizzle SCT004 BKN070 OVC110 46.9 45.1 94% 29.9 0.0 0.01
06 00:15 NW 5 10.00 Light Rain BKN070 OVC100 46.9 45.1 94% 45 29.9 0.0 0.01
05 23:35 Calm 10.00 Light Drizzle SCT004 OVC060 46.9 45.1 94% 29.9 0.0
05 23:15 W 6 10.00 Light Drizzle SCT004 OVC060 46.9 45.5 95% 45 29.91 0.0
05 22:55 W 6 10.00 Overcast SCT060 SCT080 OVC100 46.8 45 93% 44 29.91 0.0
05 22:35 Calm 10.00 Overcast SCT060 OVC100 46.4 44.6 93% 29.89 0.0
05 22:15 Calm 10.00 Light Drizzle OVC100 46.4 44.4 93% 29.89 0.0
05 21:50 NW 5 8.00 Light Rain OVC090 46.4 44.6 93% 45 29.89 0.0
05 20:50 Vrbl 5 8.00 Light Rain BKN080 46.4 44.6 93% 45 29.89 0.0
05 19:50 N 6 8.00 Light Rain OVC040 46.4 42.8 87% 44 29.87 0.0
05 18:50 N 8 6.00 Rain BKN009 BKN012 OVC050 46.4 44.6 93% 43 29.86 0.0
05 17:50 N 12 8.00 Light Rain BKN011 OVC050 48.2 44.6 87% 44 29.82 0.0
05 16:50 N 9 5.00 Light Rain BKN011 OVC050 48.2 46.4 94% 45 29.83 0.0
05 15:50 N 6 6.00 Rain BKN017 OVC050 48.2 46.4 94% 46 29.83 0.0
05 14:50 N 12 7.00 Rain BKN017 OVC050 50 46.4 88% 46 29.85 0.0
05 13:45 N 12 7.00 Rain SCT039 OVC050 51.8 44.6 77% 29.85 0.0
05 12:45 N 6 10.00 Overcast SCT037 OVC044 51.8 42.8 72% 29.87 0.0
05 11:45 NE 9 10.00 Overcast SCT046 OVC050 53.6 42.8 67% 29.85 0.0
05 10:45 N 10 10.00 Overcast OVC050 51.8 42.8 72% 29.84 0.0
05 09:45 N 16 G 23 10.00 Mostly Cloudy BKN060 BKN110 51.8 42.8 72% 29.81 0.0
05 08:45 NE 8 10.00 Light Rain SCT030 BKN050 OVC060 50 44.6 82% 47 29.81 0.0
05 07:45 N 16 G 24 4.00 Heavy Rain SCT034 BKN043 OVC048 50 46.4 88% 45 29.8 0.0
Date Time (cdt) Wind (mph) Vis. (mi.) Weather Sky Cond. Air Dwpt Max. Min. Relative Humidity Wind Chill (°F) Heat Index (°F) altimeter (in) sea level (mb) 1 hr 3 hr 6 hr
6 hour
Temperature (ºF) Pressure Precipitation (in)